| Date | Temp High/Low | Dew Pt High/Low | Humidity | Wind | Max Wind | Wind Gust | Pressure | Precip. | Condition |
|---|---|---|---|---|---|---|---|---|---|
| 4/30/2026 | 77 °F / 62 °F | 65 °F / 59 °F | 80 % | 14 mph | - | 29 in | 0 in | ||
| 4/29/2026 | 84 °F / 67 °F | 74 °F / 63 °F | 83 % | 16 mph | - | 29 in | 0 in | ||
| 4/28/2026 | 92 °F / 77 °F | 74 °F / 72 °F | 77 % | 14 mph | - | 29.01 in | 0 in | ||
| 4/27/2026 | 89 °F / 75 °F | 73 °F / 70 °F | 77 % | 17 mph | - | 28.96 in | 0 in | ||
| 4/26/2026 | 88 °F / 72 °F | 72 °F / 69 °F | 79 % | 17 mph | - | 28.9 in | 0 in | ||
| 4/25/2026 | 88 °F / 74 °F | 72 °F / 68 °F | 77 % | 15 mph | - | 28.88 in | 0 in | ||
| 4/24/2026 | 89 °F / 73 °F | 72 °F / 64 °F | 71 % | 14 mph | - | 28.89 in | 0 in | ||
| 4/23/2026 | 82 °F / 70 °F | 69 °F / 66 °F | 79 % | 17 mph | - | 28.99 in | 0 in | ||
| 4/22/2026 | 85 °F / 63 °F | 69 °F / 63 °F | 87 % | 18 mph | - | 29.14 in | 0.07 in | ||
| 4/21/2026 | 66 °F / 60 °F | 64 °F / 59 °F | 96 % | 12 mph | - | 29.26 in | 0.76 in | ||
| 4/20/2026 | 60 °F / 53 °F | 58 °F / 48 °F | 91 % | 14 mph | - | 29.36 in | 5.78 in | ||
| 4/19/2026 | 65 °F / 48 °F | 55 °F / 39 °F | 70 % | 17 mph | - | 29.4 in | 0.96 in | ||
| 4/18/2026 | 74 °F / 49 °F | 68 °F / 43 °F | 79 % | 25 mph | - | 29.13 in | 0.35 in | ||
| 4/17/2026 | 91 °F / 67 °F | 67 °F / 64 °F | 74 % | 23 mph | - | 29.02 in | 0 in | ||
| 4/16/2026 | 88 °F / 70 °F | 68 °F / 62 °F | 71 % | 18 mph | - | 29.09 in | 0 in | ||
| 4/15/2026 | 86 °F / 70 °F | 68 °F / 62 °F | 73 % | 21 mph | - | 29.08 in | 0 in | ||
| 4/14/2026 | 88 °F / 71 °F | 70 °F / 63 °F | 74 % | 23 mph | - | 29.13 in | 0.01 in | ||
| 4/13/2026 | 90 °F / 71 °F | 70 °F / 64 °F | 74 % | 20 mph | - | 29.18 in | 0.01 in | ||
| 4/12/2026 | 80 °F / 70 °F | 72 °F / 66 °F | 85 % | 18 mph | - | 29.17 in | 0.55 in | ||
| 4/11/2026 | 84 °F / 69 °F | 67 °F / 62 °F | 76 % | 22 mph | - | 29.25 in | 0 in | ||
| 4/10/2026 | 82 °F / 66 °F | 66 °F / 60 °F | 74 % | 15 mph | - | 29.26 in | 0 in | ||
| 4/9/2026 | 82 °F / 65 °F | 66 °F / 60 °F | 77 % | 21 mph | - | 29.23 in | 0.04 in | ||
| 4/8/2026 | 81 °F / 55 °F | 61 °F / 47 °F | 59 % | 12 mph | - | 29.2 in | 0 in | ||
| 4/7/2026 | 78 °F / 49 °F | 50 °F / 35 °F | 46 % | 9 mph | - | 29.22 in | 0 in | ||
| 4/6/2026 | 75 °F / 49 °F | 46 °F / 32 °F | 46 % | 15 mph | - | 29.37 in | 0 in | ||
| 4/5/2026 | 66 °F / 52 °F | 50 °F / 36 °F | 58 % | 16 mph | - | 29.39 in | 0.07 in | ||
| 4/4/2026 | 79 °F / 59 °F | 68 °F / 47 °F | 82 % | 20 mph | - | 29.18 in | 1 in | ||
| 4/3/2026 | 85 °F / 72 °F | 67 °F / 63 °F | 70 % | 22 mph | - | 29.04 in | 0 in | ||
| 4/2/2026 | 87 °F / 70 °F | 69 °F / 63 °F | 80 % | 21 mph | - | 29 in | 0.96 in | ||
| 4/1/2026 | 91 °F / 71 °F | 66 °F / 59 °F | 66 % | 26 mph | - | 29.06 in | 0 in |